Metar Cercanos

 

LEPA - Palma De Mallorc, Spain
Distance from station: ONO 38km
Actualización: Sun, 03-Mar-2024 10:00am CET
Lluvia débil, Muy nuboso
Lluvia débil, Muy nuboso
 Viento del NNO
Viento: NNO 31 km/h
Temperatura: 11°C
Rocío: 5°C
Humedad: 67%
Barómetro: 1003 hPa
Resumen: Lluvia débil
Clouds: Muy nuboso
Visibility: 10 km
Cloud details: Few Clouds 762 m
Muy nuboso 1524 m
2024/03/03 09:00 LEPA 030900Z 34017KT 290V010 9999 -RA FEW025TCU BKN050 11/05 Q1003 NOSIG
LEMH - Mahon/Menorca Is, Spain
Distance from station: ENE 105km
Actualización: Sun, 03-Mar-2024 10:00am CET
Nearby showers, Few clouds
Nearby showers, Few clouds
 Viento del O
Viento: O 37 km/h, Racha: 67 km/h
Temperatura: 9°C
Sensación frio: 4°C
Rocío: 6°C
Humedad: 82%
Barómetro: 1001 hPa
Resumen: Nearby Showers
Clouds: Few Clouds
Visibility: 10 km
Cloud details: Parcialmente nuboso 671 m
Few Clouds 762 m
2024/03/03 09:00 LEMH 030900Z 27020G36KT 210V300 9999 VCSH SCT022 FEW025TCU 09/06 Q1001 RESHRA
 
LEIB - Ibiza/Es Codola, Spain
Distance from station: OSO 165km
Actualización: Sun, 03-Mar-2024 10:00am CET
Despejado
Despejado
 Viento del O
Viento: O 39 km/h, Racha: 57 km/h
Temperatura: 13°C
Rocío: 2°C
Humedad: 47%
Barómetro: 1006 hPa
Resumen: Despejado
Visibility: greater than 10 km
2024/03/03 09:00 LEIB 030900Z 28021G31KT 230V310 CAVOK 13/02 Q1006 NOSIG
LEBL - Barcelona Airpor, Spain
Distance from station: NNO 225km
Actualización: Sun, 03-Mar-2024 10:00am CET
Muy nuboso
Muy nuboso
 Viento del S
Viento: S 7 km/h
Temperatura: 7°C
Sensación frio: 6°C
Rocío: 4°C
Humedad: 81%
Barómetro: 1001 hPa
Clouds: Muy nuboso
Visibility: 10 km
Cloud details: Few Clouds 610 m
Parcialmente nuboso 1036 m
Muy nuboso 1676 m
2024/03/03 09:00 LEBL 030900Z 18004KT 9999 FEW020TCU SCT034 BKN055 07/04 Q1001 TEMPO 4000 SHRA
 
LEVC - Valencia (civ/Mi, Spain
Distance from station: NO 188km
Actualización: Sun, 03-Mar-2024 10:00am CET
Few Clouds
Few Clouds
 Viento del O
Viento: O 41 km/h
Temperatura: 11°C
Rocío: -1°C
Humedad: 44%
Barómetro: 1007 hPa
Clouds: Few Clouds
Visibility: 10 km
Cloud details: Few Clouds 914 m
2024/03/03 09:00 LEVC 030900Z 26022KT 9999 FEW030 11/M01 Q1007 NOSIG
LEGE - Gerona/Costa Bra, Spain
Distance from station: N 276km
Actualización: Sun, 03-Mar-2024 10:00am CET
Cubierto
Cubierto
 Viento del SSO
Viento: SSO 9 km/h
Temperatura: 6°C
Sensación frio: 4°C
Rocío: 4°C
Humedad: 87%
Barómetro: 998 hPa
Clouds: Cubierto
Visibility: 10 km
Cloud details: Cubierto 2438 m
2024/03/03 09:00 LEGE 030900Z 21005KT 9999 OVC080 06/04 Q0998
 
LEAL - Alicante/El Alte, Spain
Distance from station: OSO 344km
Actualización: Sun, 03-Mar-2024 10:00am CET
Few Clouds
Few Clouds
 Viento del O
Viento: O 33 km/h, Racha: 52 km/h
Temperatura: 12°C
Rocío: 0°C
Humedad: 44%
Barómetro: 1009 hPa
Clouds: Few Clouds
Visibility: 10 km
Cloud details: Few Clouds 610 m
2024/03/03 09:00 LEAL 030900Z 28018G28KT 240V300 9999 FEW020 12/M00 Q1009 NOSIG
LEAM - Almeria Airport, Spain
Distance from station: SSO 56km
Actualización: Sun, 03-Mar-2024 10:00am CET
Despejado
Despejado
 Viento del OSO
Viento: OSO 20 km/h
Temperatura: 15°C
Rocío: 0°C
Humedad: 36%
Barómetro: 1012 hPa
Resumen: Despejado
Visibility: greater than 10 km
2024/03/03 09:00 LEAM 030900Z 25011KT CAVOK 15/M00 Q1012
 
LEZG - Zaragoza (mil/Ci, Spain
Distance from station: NO 431km
Actualización: Sun, 03-Mar-2024 10:00am CET
Despejado
Despejado
 Viento del ONO
Viento: ONO 20 km/h
Temperatura: 7°C
Sensación frio: 4°C
Rocío: 0°C
Humedad: 61%
Barómetro: 1007 hPa
Resumen: Despejado
Visibility: greater than 10 km
2024/03/03 09:00 LEZG 030900Z 30011KT CAVOK 07/00 Q1007
LEMD - Madrid/Barajas, Spain
Distance from station: ONO 234km
Actualización: Sun, 03-Mar-2024 10:00am CET
Few Clouds
Few Clouds
 Viento del OSO
Viento: OSO 26 km/h
Temperatura: 6°C
Sensación frio: 2°C
Rocío: -1°C
Humedad: 61%
Barómetro: 1010 hPa
Clouds: Few Clouds
Visibility: 10 km
Cloud details: Few Clouds 1219 m
2024/03/03 09:00 LEMD 030900Z 25014KT 220V280 9999 FEW040 06/M01 Q1010 NOSIG
 
LEGR - Granada Airport, Spain
Distance from station: OSO 62km
Actualización: Sun, 03-Mar-2024 10:00am CET
Muy nuboso
Muy nuboso
 Viento del E
Viento: E 6 km/h
Temperatura: 6°C
Rocío: 3°C
Humedad: 81%
Barómetro: 1015 hPa
Clouds: Muy nuboso
Visibility: 10 km
Cloud details: Muy nuboso 1067 m
2024/03/03 09:00 LEGR 030900Z 10003KT 340V140 9999 BKN035 06/03 Q1015
LEMG - Malaga (civ/Mil), Spain
Distance from station: OSO 227km
Actualización: Sun, 03-Mar-2024 10:00am CET
Few Clouds
Few Clouds
 Viento del NO
Viento: NO 20 km/h
Temperatura: 12°C
Rocío: 3°C
Humedad: 54%
Barómetro: 1016 hPa
Clouds: Few Clouds
Visibility: 10 km
Cloud details: Few Clouds 1219 m
2024/03/03 09:00 LEMG 030900Z 32011KT 9999 FEW040 12/03 Q1016 NOSIG
 
LEZL - Sevilla (civ/Mil, Spain
Distance from station: S 318km
Actualización: Sun, 03-Mar-2024 10:00am CET
Despejado
Despejado
 Viento del O
Viento: O 11 km/h
Temperatura: 10°C
Sensación frio: 8°C
Rocío: 6°C
Humedad: 76%
Barómetro: 1017 hPa
Resumen: Despejado
Visibility: greater than 10 km
2024/03/03 09:00 LEZL 030900Z 28006KT 260V320 CAVOK 10/06 Q1017 NOSIG
LEVT - Vitoria, Spain
Distance from station: NO 226km
Actualización: Sun, 03-Mar-2024 10:00am CET
Muy nuboso
Muy nuboso
 Viento del S
Viento: S 7 km/h
Temperatura: 3°C
Sensación frio: 1°C
Rocío: 0°C
Humedad: 81%
Barómetro: 1007 hPa
Clouds: Muy nuboso
Visibility: 10 km
Cloud details: Muy nuboso 792 m
2024/03/03 09:00 LEVT 030900Z 19004KT 150V230 9999 BKN026 03/00 Q1007
 
LEBB - Bilbao/Sondica, Spain
Distance from station: NNO 235km
Actualización: Sun, 03-Mar-2024 10:00am CET
Muy nuboso
Muy nuboso
 Viento del O
Viento: O 7 km/h
Temperatura: 6°C
Sensación frio: 4°C
Rocío: 4°C
Humedad: 87%
Barómetro: 1009 hPa
Clouds: Muy nuboso
Visibility: 10 km
Cloud details: Muy nuboso 884 m
Muy nuboso 1250 m
2024/03/03 09:00 LEBB 030900Z 26004KT 190V320 9999 BKN029 BKN041 06/04 Q1009 TEMPO 3000 SHRA SCT030TCU
LESO - San Sebastian/Fu, Spain
Distance from station: N 231km
Actualización: Sun, 03-Mar-2024 10:00am CET
Lluvia débil, Cubierto
Lluvia débil, Cubierto
 Viento del OSO
Viento: OSO 22 km/h, Racha: 43 km/h
Temperatura: 7°C
Sensación frio: 4°C
Rocío: 5°C
Humedad: 87%
Barómetro: 1007 hPa
Resumen: Lluvia débil
Clouds: Cubierto
Visibility: 8 km
Cloud details: Muy nuboso 579 m
Cubierto 732 m
2024/03/03 09:00 LESO 030900Z 24012G23KT 200V280 8000 -RA BKN019 OVC024 07/05 Q1007
 
LEVD - Valladolid(Mil/C, Spain
Distance from station: ONO 239km
Actualización: Sun, 03-Mar-2024 10:00am CET
Few Clouds
Few Clouds
 Viento del O
Viento: O 26 km/h
Temperatura: 2°C
Sensación frio: -3°C
Rocío: 0°C
Humedad: 87%
Barómetro: 1009 hPa
Clouds: Few Clouds
Visibility: 10 km
Cloud details: Few Clouds 305 m
2024/03/03 09:00 LEVD 030900Z 27014KT 9999 FEW010 02/00 Q1009
LESA - Salamanca (civ/M, Spain
Distance from station: ONO 349km
Actualización: Sun, 03-Mar-2024 10:00am CET
Muy nuboso
Muy nuboso
 Viento del O
Viento: O 19 km/h
Temperatura: 3°C
Sensación frio: -2°C
Rocío: 1°C
Humedad: 87%
Barómetro: 1012 hPa
Clouds: Muy nuboso
Visibility: 10 km
Cloud details: Muy nuboso 457 m
2024/03/03 09:00 LESA 030900Z 27010KT 9999 BKN015 03/01 Q1012
 
LEXJ - Santander/Paraya, Spain
Distance from station: NNO 247km
Actualización: Sun, 03-Mar-2024 10:00am CET
Heavy hail, Showers, Lluvia, Parcialmente nuboso
Heavy hail, Showers, Lluvia, Parcialmente nuboso
 Viento del NO
Viento: NO 22 km/h, Racha: 43 km/h
Temperatura: 5°C
Sensación frio: 1°C
Rocío: 5°C
Humedad: 100%
Barómetro: 1009 hPa
Resumen: Heavy hail, Showers, Lluvia
Clouds: Parcialmente nuboso
Visibility: 8 km
Cloud details: Parcialmente nuboso 366 m
Muy nuboso 549 m
Parcialmente nuboso 914 m
2024/03/03 09:00 LEXJ 030900Z 32012G23KT 280V360 8000 +SHGRRA SCT012 BKN018 SCT030TCU 05/05 Q1009
LEAS - Asturias/Aviles, Spain
Distance from station: NO 214km
Actualización: Sun, 03-Mar-2024 10:00am CET
Nearby showers, Muy nuboso
Nearby showers, Muy nuboso
 Viento del SO
Viento: SO 24 km/h
Temperatura: 6°C
Sensación frio: 2°C
Rocío: 4°C
Humedad: 87%
Barómetro: 1010 hPa
Resumen: Nearby Showers
Clouds: Muy nuboso
Visibility: 10 km
Cloud details: Parcialmente nuboso 914 m
Parcialmente nuboso 1829 m
Muy nuboso 2134 m
2024/03/03 09:00 LEAS 030900Z 22013KT 200V260 9999 VCSH SCT030TCU SCT060 BKN070 06/04 Q1010 NOSIG
 
LECO - La Coruna/Alvedr, Spain
Distance from station: ONO 222km
Actualización: Sun, 03-Mar-2024 10:00am CET
Lluvia débil, Showers, Muy nuboso
Lluvia débil, Showers, Muy nuboso
 Viento del OSO
Viento: OSO 13 km/h
Temperatura: 8°C
Sensación frio: 6°C
Rocío: 5°C
Humedad: 82%
Barómetro: 1011 hPa
Resumen: Lluvia débil, Showers
Clouds: Muy nuboso
Visibility: 10 km
Cloud details: Muy nuboso 914 m
Muy nuboso 1433 m
2024/03/03 09:00 LECO 030900Z 25007KT 220V310 9999 -SHRA BKN030 BKN047TCU 08/05 Q1011 TEMPO 3000
LEVX - Vigo/Peinador, Spain
Distance from station: O 214km
Actualización: Sun, 03-Mar-2024 10:00am CET
Patches of fog, Muy nuboso
Patches of fog, Muy nuboso
 Viento del SSO
Viento: SSO 13 km/h
Temperatura: 6°C
Sensación frio: 3°C
Rocío: 5°C
Humedad: 93%
Barómetro: 1013 hPa
Resumen: Patches of Fog
Clouds: Muy nuboso
Visibility: 10 km
Cloud details: Few Clouds 823 m
Parcialmente nuboso 1006 m
Muy nuboso 1494 m
2024/03/03 09:00 LEVX 030900Z 20007KT 160V220 9999 BCFG FEW027 SCT033 BKN049 06/05 Q1013 RERA NOSIG